sensor_id;sensor_type;location;lat;lon;timestamp;P1;durP1;ratioP1;P2;durP2;ratioP2
77544;SDS011;66672;50.328;7.610;2023-12-22T00:01:04;17.67;;;16.48;;
77544;SDS011;66672;50.328;7.610;2023-12-22T00:03:29;16.80;;;15.70;;
77544;SDS011;66672;50.328;7.610;2023-12-22T00:05:54;17.52;;;16.33;;
77544;SDS011;66672;50.328;7.610;2023-12-22T00:08:19;17.48;;;16.38;;
77544;SDS011;66672;50.328;7.610;2023-12-22T00:10:44;18.00;;;16.90;;
77544;SDS011;66672;50.328;7.610;2023-12-22T00:13:10;17.90;;;16.70;;
77544;SDS011;66672;50.328;7.610;2023-12-22T00:15:35;18.90;;;17.60;;
77544;SDS011;66672;50.328;7.610;2023-12-22T00:18:00;18.88;;;17.60;;
77544;SDS011;66672;50.328;7.610;2023-12-22T00:20:25;18.17;;;16.80;;
77544;SDS011;66672;50.328;7.610;2023-12-22T00:22:50;18.33;;;17.13;;
77544;SDS011;66672;50.328;7.610;2023-12-22T00:25:15;18.85;;;17.55;;
77544;SDS011;66672;50.328;7.610;2023-12-22T00:27:41;18.55;;;17.35;;
77544;SDS011;66672;50.328;7.610;2023-12-22T00:30:06;18.60;;;17.30;;
77544;SDS011;66672;50.328;7.610;2023-12-22T00:32:31;18.70;;;17.40;;
77544;SDS011;66672;50.328;7.610;2023-12-22T00:34:56;18.85;;;17.52;;
77544;SDS011;66672;50.328;7.610;2023-12-22T00:37:23;19.33;;;17.80;;
77544;SDS011;66672;50.328;7.610;2023-12-22T00:39:48;19.17;;;17.88;;
77544;SDS011;66672;50.328;7.610;2023-12-22T00:42:13;19.52;;;18.13;;
77544;SDS011;66672;50.328;7.610;2023-12-22T00:44:38;19.63;;;17.88;;
77544;SDS011;66672;50.328;7.610;2023-12-22T00:47:05;19.42;;;17.55;;
77544;SDS011;66672;50.328;7.610;2023-12-22T00:49:30;17.88;;;16.58;;
77544;SDS011;66672;50.328;7.610;2023-12-22T00:51:55;17.92;;;16.63;;
77544;SDS011;66672;50.328;7.610;2023-12-22T00:54:20;17.98;;;16.60;;
77544;SDS011;66672;50.328;7.610;2023-12-22T00:56:46;18.00;;;16.70;;
77544;SDS011;66672;50.328;7.610;2023-12-22T00:59:11;17.83;;;16.63;;
77544;SDS011;66672;50.328;7.610;2023-12-22T01:01:36;18.67;;;17.10;;
77544;SDS011;66672;50.328;7.610;2023-12-22T01:04:01;18.30;;;17.10;;
77544;SDS011;66672;50.328;7.610;2023-12-22T01:06:27;18.02;;;16.77;;
77544;SDS011;66672;50.328;7.610;2023-12-22T01:08:52;17.35;;;16.13;;
77544;SDS011;66672;50.328;7.610;2023-12-22T01:11:17;18.08;;;16.63;;
77544;SDS011;66672;50.328;7.610;2023-12-22T01:13:43;18.10;;;16.60;;
77544;SDS011;66672;50.328;7.610;2023-12-22T01:16:08;18.17;;;16.70;;
77544;SDS011;66672;50.328;7.610;2023-12-22T01:18:33;17.30;;;16.20;;
77544;SDS011;66672;50.328;7.610;2023-12-22T01:20:58;17.70;;;16.40;;
77544;SDS011;66672;50.328;7.610;2023-12-22T01:23:24;17.58;;;16.38;;
77544;SDS011;66672;50.328;7.610;2023-12-22T01:25:50;17.65;;;16.25;;
77544;SDS011;66672;50.328;7.610;2023-12-22T01:28:15;17.40;;;16.17;;
77544;SDS011;66672;50.328;7.610;2023-12-22T01:30:40;16.58;;;15.32;;
77544;SDS011;66672;50.328;7.610;2023-12-22T01:33:05;16.80;;;15.35;;
77544;SDS011;66672;50.328;7.610;2023-12-22T01:35:30;16.00;;;15.00;;
77544;SDS011;66672;50.328;7.610;2023-12-22T01:37:56;16.80;;;15.70;;
77544;SDS011;66672;50.328;7.610;2023-12-22T01:40:22;16.60;;;15.27;;
77544;SDS011;66672;50.328;7.610;2023-12-22T01:42:47;17.30;;;16.00;;
77544;SDS011;66672;50.328;7.610;2023-12-22T01:45:12;16.92;;;15.80;;
77544;SDS011;66672;50.328;7.610;2023-12-22T01:47:37;16.20;;;15.20;;
77544;SDS011;66672;50.328;7.610;2023-12-22T01:50:03;16.40;;;15.40;;
77544;SDS011;66672;50.328;7.610;2023-12-22T01:52:29;17.02;;;15.73;;
77544;SDS011;66672;50.328;7.610;2023-12-22T01:54:54;16.58;;;15.27;;
77544;SDS011;66672;50.328;7.610;2023-12-22T01:57:20;16.20;;;15.20;;
77544;SDS011;66672;50.328;7.610;2023-12-22T01:59:46;16.45;;;15.32;;
77544;SDS011;66672;50.328;7.610;2023-12-22T02:02:11;16.65;;;15.55;;
77544;SDS011;66672;50.328;7.610;2023-12-22T02:04:37;16.70;;;15.60;;
77544;SDS011;66672;50.328;7.610;2023-12-22T02:07:02;17.30;;;16.20;;
77544;SDS011;66672;50.328;7.610;2023-12-22T02:09:28;17.50;;;16.20;;
77544;SDS011;66672;50.328;7.610;2023-12-22T02:11:53;17.95;;;16.40;;
77544;SDS011;66672;50.328;7.610;2023-12-22T02:14:18;16.75;;;15.65;;
77544;SDS011;66672;50.328;7.610;2023-12-22T02:16:55;16.83;;;15.60;;
77544;SDS011;66672;50.328;7.610;2023-12-22T02:22:07;16.45;;;15.07;;
77544;SDS011;66672;50.328;7.610;2023-12-22T02:24:32;16.70;;;15.40;;
77544;SDS011;66672;50.328;7.610;2023-12-22T02:27:04;16.48;;;15.27;;
77544;SDS011;66672;50.328;7.610;2023-12-22T02:29:35;16.98;;;15.68;;
77544;SDS011;66672;50.328;7.610;2023-12-22T02:32:02;17.08;;;15.55;;
77544;SDS011;66672;50.328;7.610;2023-12-22T02:34:30;18.48;;;16.52;;
77544;SDS011;66672;50.328;7.610;2023-12-22T02:36:56;17.20;;;15.77;;
77544;SDS011;66672;50.328;7.610;2023-12-22T02:39:21;17.40;;;15.90;;
77544;SDS011;66672;50.328;7.610;2023-12-22T02:41:47;17.73;;;16.25;;
77544;SDS011;66672;50.328;7.610;2023-12-22T02:44:12;17.13;;;15.60;;
77544;SDS011;66672;50.328;7.610;2023-12-22T02:46:37;17.02;;;15.80;;
77544;SDS011;66672;50.328;7.610;2023-12-22T02:49:03;17.08;;;15.65;;
77544;SDS011;66672;50.328;7.610;2023-12-22T02:51:28;16.85;;;15.60;;
77544;SDS011;66672;50.328;7.610;2023-12-22T02:53:53;18.00;;;16.10;;
77544;SDS011;66672;50.328;7.610;2023-12-22T02:56:18;17.70;;;16.30;;
77544;SDS011;66672;50.328;7.610;2023-12-22T02:58:43;17.05;;;15.73;;
77544;SDS011;66672;50.328;7.610;2023-12-22T03:01:09;18.80;;;17.02;;
77544;SDS011;66672;50.328;7.610;2023-12-22T03:03:34;18.05;;;16.50;;
77544;SDS011;66672;50.328;7.610;2023-12-22T03:05:59;17.70;;;16.25;;
77544;SDS011;66672;50.328;7.610;2023-12-22T03:08:24;18.85;;;17.00;;
77544;SDS011;66672;50.328;7.610;2023-12-22T03:10:49;19.17;;;17.33;;
77544;SDS011;66672;50.328;7.610;2023-12-22T03:13:15;18.98;;;16.92;;
77544;SDS011;66672;50.328;7.610;2023-12-22T03:15:40;18.90;;;17.40;;
77544;SDS011;66672;50.328;7.610;2023-12-22T03:18:05;19.38;;;17.50;;
77544;SDS011;66672;50.328;7.610;2023-12-22T03:20:30;19.75;;;18.10;;
77544;SDS011;66672;50.328;7.610;2023-12-22T03:22:59;19.77;;;18.02;;
77544;SDS011;66672;50.328;7.610;2023-12-22T03:25:24;20.13;;;17.63;;
77544;SDS011;66672;50.328;7.610;2023-12-22T03:27:49;18.70;;;17.00;;
77544;SDS011;66672;50.328;7.610;2023-12-22T03:30:15;19.83;;;18.05;;
77544;SDS011;66672;50.328;7.610;2023-12-22T03:32:40;21.30;;;18.50;;
77544;SDS011;66672;50.328;7.610;2023-12-22T03:35:05;19.40;;;17.67;;
77544;SDS011;66672;50.328;7.610;2023-12-22T03:37:30;19.25;;;17.58;;
77544;SDS011;66672;50.328;7.610;2023-12-22T03:39:55;20.73;;;18.90;;
77544;SDS011;66672;50.328;7.610;2023-12-22T03:42:21;19.90;;;18.30;;
77544;SDS011;66672;50.328;7.610;2023-12-22T03:44:46;19.33;;;17.73;;
77544;SDS011;66672;50.328;7.610;2023-12-22T03:47:11;20.40;;;18.65;;
77544;SDS011;66672;50.328;7.610;2023-12-22T03:49:39;20.30;;;18.25;;
77544;SDS011;66672;50.328;7.610;2023-12-22T03:52:04;19.13;;;17.50;;
77544;SDS011;66672;50.328;7.610;2023-12-22T03:54:29;19.45;;;17.55;;
77544;SDS011;66672;50.328;7.610;2023-12-22T03:56:55;20.48;;;18.27;;
77544;SDS011;66672;50.328;7.610;2023-12-22T03:59:20;19.60;;;17.90;;
77544;SDS011;66672;50.328;7.610;2023-12-22T04:01:50;19.67;;;17.92;;
77544;SDS011;66672;50.328;7.610;2023-12-22T04:04:15;20.20;;;18.35;;
77544;SDS011;66672;50.328;7.610;2023-12-22T04:06:40;20.65;;;18.88;;
77544;SDS011;66672;50.328;7.610;2023-12-22T04:09:05;20.25;;;18.30;;
77544;SDS011;66672;50.328;7.610;2023-12-22T04:11:30;20.58;;;18.67;;
77544;SDS011;66672;50.328;7.610;2023-12-22T04:13:56;20.42;;;18.52;;
77544;SDS011;66672;50.328;7.610;2023-12-22T04:16:21;20.33;;;18.52;;
77544;SDS011;66672;50.328;7.610;2023-12-22T04:18:46;20.65;;;18.80;;
77544;SDS011;66672;50.328;7.610;2023-12-22T04:21:11;21.85;;;19.70;;
77544;SDS011;66672;50.328;7.610;2023-12-22T04:23:36;20.48;;;18.55;;
77544;SDS011;66672;50.328;7.610;2023-12-22T04:26:02;19.75;;;18.15;;
77544;SDS011;66672;50.328;7.610;2023-12-22T04:28:27;21.00;;;18.48;;
77544;SDS011;66672;50.328;7.610;2023-12-22T04:30:52;20.20;;;18.23;;
77544;SDS011;66672;50.328;7.610;2023-12-22T04:33:17;19.23;;;17.73;;
77544;SDS011;66672;50.328;7.610;2023-12-22T04:35:42;20.52;;;18.52;;
77544;SDS011;66672;50.328;7.610;2023-12-22T04:38:08;19.92;;;18.30;;
77544;SDS011;66672;50.328;7.610;2023-12-22T04:40:33;20.08;;;18.33;;
77544;SDS011;66672;50.328;7.610;2023-12-22T04:42:58;19.52;;;17.98;;
77544;SDS011;66672;50.328;7.610;2023-12-22T04:45:23;20.42;;;18.67;;
77544;SDS011;66672;50.328;7.610;2023-12-22T04:47:48;19.83;;;18.08;;
77544;SDS011;66672;50.328;7.610;2023-12-22T04:50:14;20.15;;;18.33;;
77544;SDS011;66672;50.328;7.610;2023-12-22T04:52:39;19.77;;;18.05;;
77544;SDS011;66672;50.328;7.610;2023-12-22T04:55:04;19.58;;;17.98;;
77544;SDS011;66672;50.328;7.610;2023-12-22T04:57:29;19.85;;;18.25;;
77544;SDS011;66672;50.328;7.610;2023-12-22T04:59:54;19.58;;;18.08;;
77544;SDS011;66672;50.328;7.610;2023-12-22T05:02:20;19.05;;;17.30;;
77544;SDS011;66672;50.328;7.610;2023-12-22T05:04:45;18.63;;;17.23;;
77544;SDS011;66672;50.328;7.610;2023-12-22T05:07:10;18.77;;;17.55;;
77544;SDS011;66672;50.328;7.610;2023-12-22T05:09:35;20.63;;;18.63;;
77544;SDS011;66672;50.328;7.610;2023-12-22T05:12:01;19.77;;;17.92;;
77544;SDS011;66672;50.328;7.610;2023-12-22T05:14:26;19.40;;;17.90;;
77544;SDS011;66672;50.328;7.610;2023-12-22T05:16:51;19.20;;;17.60;;
77544;SDS011;66672;50.328;7.610;2023-12-22T05:19:20;19.20;;;17.60;;
77544;SDS011;66672;50.328;7.610;2023-12-22T05:21:45;18.90;;;17.40;;
77544;SDS011;66672;50.328;7.610;2023-12-22T05:24:10;19.00;;;17.50;;
77544;SDS011;66672;50.328;7.610;2023-12-22T05:26:35;19.50;;;17.95;;
77544;SDS011;66672;50.328;7.610;2023-12-22T05:29:00;19.90;;;18.13;;
77544;SDS011;66672;50.328;7.610;2023-12-22T05:31:25;18.65;;;17.20;;
77544;SDS011;66672;50.328;7.610;2023-12-22T05:33:52;19.25;;;17.90;;
77544;SDS011;66672;50.328;7.610;2023-12-22T05:36:17;18.70;;;17.50;;
77544;SDS011;66672;50.328;7.610;2023-12-22T05:38:43;19.05;;;17.75;;
77544;SDS011;66672;50.328;7.610;2023-12-22T05:41:08;19.58;;;17.88;;
77544;SDS011;66672;50.328;7.610;2023-12-22T05:43:33;19.23;;;17.83;;
77544;SDS011;66672;50.328;7.610;2023-12-22T05:45:58;19.40;;;17.80;;
77544;SDS011;66672;50.328;7.610;2023-12-22T05:48:24;19.00;;;17.60;;
77544;SDS011;66672;50.328;7.610;2023-12-22T05:50:49;19.20;;;17.60;;
77544;SDS011;66672;50.328;7.610;2023-12-22T05:53:14;19.48;;;17.73;;
77544;SDS011;66672;50.328;7.610;2023-12-22T05:55:40;18.48;;;17.08;;
77544;SDS011;66672;50.328;7.610;2023-12-22T05:58:05;19.30;;;17.80;;
77544;SDS011;66672;50.328;7.610;2023-12-22T06:00:30;19.88;;;18.23;;
77544;SDS011;66672;50.328;7.610;2023-12-22T06:02:55;20.23;;;18.40;;
77544;SDS011;66672;50.328;7.610;2023-12-22T06:05:21;19.83;;;18.02;;
77544;SDS011;66672;50.328;7.610;2023-12-22T06:07:46;19.27;;;17.77;;
77544;SDS011;66672;50.328;7.610;2023-12-22T06:10:11;19.05;;;17.35;;
77544;SDS011;66672;50.328;7.610;2023-12-22T06:12:36;19.13;;;17.73;;
77544;SDS011;66672;50.328;7.610;2023-12-22T06:15:02;19.45;;;17.85;;
77544;SDS011;66672;50.328;7.610;2023-12-22T06:17:27;20.45;;;18.58;;
77544;SDS011;66672;50.328;7.610;2023-12-22T06:19:52;18.83;;;17.17;;
77544;SDS011;66672;50.328;7.610;2023-12-22T06:22:17;19.52;;;17.83;;
77544;SDS011;66672;50.328;7.610;2023-12-22T06:24:43;20.27;;;18.38;;
77544;SDS011;66672;50.328;7.610;2023-12-22T06:27:08;19.90;;;18.30;;
77544;SDS011;66672;50.328;7.610;2023-12-22T06:29:33;20.13;;;18.27;;
77544;SDS011;66672;50.328;7.610;2023-12-22T06:31:58;19.83;;;17.92;;
77544;SDS011;66672;50.328;7.610;2023-12-22T06:34:24;20.38;;;18.38;;
77544;SDS011;66672;50.328;7.610;2023-12-22T06:36:50;23.50;;;20.98;;
77544;SDS011;66672;50.328;7.610;2023-12-22T06:39:15;21.20;;;18.65;;
77544;SDS011;66672;50.328;7.610;2023-12-22T06:41:40;19.92;;;17.92;;
77544;SDS011;66672;50.328;7.610;2023-12-22T06:44:06;20.33;;;18.15;;
77544;SDS011;66672;50.328;7.610;2023-12-22T06:46:32;20.70;;;18.50;;
77544;SDS011;66672;50.328;7.610;2023-12-22T06:48:57;20.67;;;18.85;;
77544;SDS011;66672;50.328;7.610;2023-12-22T06:51:26;21.30;;;18.20;;
77544;SDS011;66672;50.328;7.610;2023-12-22T06:53:51;20.13;;;18.30;;
77544;SDS011;66672;50.328;7.610;2023-12-22T06:56:23;20.90;;;19.30;;
77544;SDS011;66672;50.328;7.610;2023-12-22T06:58:49;20.88;;;18.88;;
77544;SDS011;66672;50.328;7.610;2023-12-22T07:01:24;20.38;;;18.42;;
77544;SDS011;66672;50.328;7.610;2023-12-22T07:03:50;21.02;;;18.92;;
77544;SDS011;66672;50.328;7.610;2023-12-22T07:06:18;20.95;;;18.70;;
77544;SDS011;66672;50.328;7.610;2023-12-22T07:08:44;20.17;;;18.52;;
77544;SDS011;66672;50.328;7.610;2023-12-22T07:11:09;19.73;;;18.02;;
77544;SDS011;66672;50.328;7.610;2023-12-22T07:13:35;20.00;;;18.25;;
77544;SDS011;66672;50.328;7.610;2023-12-22T07:16:00;19.85;;;18.25;;
77544;SDS011;66672;50.328;7.610;2023-12-22T07:18:27;19.23;;;17.63;;
77544;SDS011;66672;50.328;7.610;2023-12-22T07:20:55;19.25;;;17.65;;
77544;SDS011;66672;50.328;7.610;2023-12-22T07:23:20;18.60;;;17.30;;
77544;SDS011;66672;50.328;7.610;2023-12-22T07:25:45;18.50;;;17.30;;
77544;SDS011;66672;50.328;7.610;2023-12-22T07:28:10;18.80;;;17.48;;
77544;SDS011;66672;50.328;7.610;2023-12-22T07:30:35;18.83;;;17.42;;
77544;SDS011;66672;50.328;7.610;2023-12-22T07:33:01;18.92;;;17.35;;
77544;SDS011;66672;50.328;7.610;2023-12-22T07:35:26;19.08;;;17.67;;
77544;SDS011;66672;50.328;7.610;2023-12-22T07:37:51;19.02;;;17.52;;
77544;SDS011;66672;50.328;7.610;2023-12-22T07:40:16;18.60;;;17.30;;
77544;SDS011;66672;50.328;7.610;2023-12-22T07:42:41;18.67;;;17.27;;
77544;SDS011;66672;50.328;7.610;2023-12-22T07:45:07;19.35;;;17.85;;
77544;SDS011;66672;50.328;7.610;2023-12-22T07:47:33;19.80;;;18.35;;
77544;SDS011;66672;50.328;7.610;2023-12-22T07:49:59;19.52;;;18.00;;
77544;SDS011;66672;50.328;7.610;2023-12-22T07:52:24;20.05;;;18.45;;
77544;SDS011;66672;50.328;7.610;2023-12-22T07:54:49;19.55;;;18.05;;
77544;SDS011;66672;50.328;7.610;2023-12-22T07:57:14;20.13;;;18.45;;
77544;SDS011;66672;50.328;7.610;2023-12-22T07:59:39;20.38;;;18.60;;
77544;SDS011;66672;50.328;7.610;2023-12-22T08:02:05;19.17;;;17.58;;
77544;SDS011;66672;50.328;7.610;2023-12-22T08:04:30;18.52;;;17.13;;
77544;SDS011;66672;50.328;7.610;2023-12-22T08:06:55;18.58;;;17.17;;
77544;SDS011;66672;50.328;7.610;2023-12-22T08:09:20;19.13;;;17.52;;
77544;SDS011;66672;50.328;7.610;2023-12-22T08:11:47;18.63;;;17.33;;
77544;SDS011;66672;50.328;7.610;2023-12-22T08:14:12;19.35;;;17.67;;
77544;SDS011;66672;50.328;7.610;2023-12-22T08:16:38;19.05;;;17.60;;
77544;SDS011;66672;50.328;7.610;2023-12-22T08:19:03;19.35;;;17.67;;
77544;SDS011;66672;50.328;7.610;2023-12-22T08:21:28;18.17;;;16.67;;
77544;SDS011;66672;50.328;7.610;2023-12-22T08:23:53;18.95;;;17.20;;
77544;SDS011;66672;50.328;7.610;2023-12-22T08:26:18;19.27;;;17.38;;
77544;SDS011;66672;50.328;7.610;2023-12-22T08:28:44;19.15;;;17.50;;
77544;SDS011;66672;50.328;7.610;2023-12-22T08:31:09;19.45;;;17.80;;
77544;SDS011;66672;50.328;7.610;2023-12-22T08:33:34;20.45;;;18.80;;
77544;SDS011;66672;50.328;7.610;2023-12-22T08:36:00;19.13;;;17.63;;
77544;SDS011;66672;50.328;7.610;2023-12-22T08:38:25;20.30;;;18.33;;
77544;SDS011;66672;50.328;7.610;2023-12-22T08:40:54;20.15;;;18.05;;
77544;SDS011;66672;50.328;7.610;2023-12-22T08:43:19;19.70;;;17.92;;
77544;SDS011;66672;50.328;7.610;2023-12-22T08:45:44;19.55;;;17.88;;
77544;SDS011;66672;50.328;7.610;2023-12-22T08:48:09;20.33;;;18.38;;
77544;SDS011;66672;50.328;7.610;2023-12-22T08:50:35;20.08;;;18.23;;
77544;SDS011;66672;50.328;7.610;2023-12-22T08:53:00;19.38;;;17.70;;
77544;SDS011;66672;50.328;7.610;2023-12-22T08:55:26;19.52;;;17.83;;
77544;SDS011;66672;50.328;7.610;2023-12-22T08:57:51;19.98;;;18.23;;
77544;SDS011;66672;50.328;7.610;2023-12-22T09:00:16;20.38;;;18.25;;
77544;SDS011;66672;50.328;7.610;2023-12-22T09:02:41;21.60;;;18.42;;
77544;SDS011;66672;50.328;7.610;2023-12-22T09:05:07;20.88;;;18.70;;
77544;SDS011;66672;50.328;7.610;2023-12-22T09:07:32;19.70;;;17.98;;
77544;SDS011;66672;50.328;7.610;2023-12-22T09:09:57;18.48;;;16.80;;
77544;SDS011;66672;50.328;7.610;2023-12-22T09:12:22;21.40;;;19.25;;
77544;SDS011;66672;50.328;7.610;2023-12-22T09:14:47;22.92;;;19.80;;
77544;SDS011;66672;50.328;7.610;2023-12-22T09:17:13;21.85;;;19.73;;
77544;SDS011;66672;50.328;7.610;2023-12-22T09:19:38;21.00;;;18.73;;
77544;SDS011;66672;50.328;7.610;2023-12-22T09:22:04;21.33;;;19.08;;
77544;SDS011;66672;50.328;7.610;2023-12-22T09:24:29;21.75;;;19.27;;
77544;SDS011;66672;50.328;7.610;2023-12-22T09:26:54;20.17;;;18.35;;
77544;SDS011;66672;50.328;7.610;2023-12-22T09:29:19;21.23;;;19.00;;
77544;SDS011;66672;50.328;7.610;2023-12-22T09:31:46;20.92;;;18.50;;
77544;SDS011;66672;50.328;7.610;2023-12-22T09:34:11;23.13;;;19.73;;
77544;SDS011;66672;50.328;7.610;2023-12-22T09:36:36;22.58;;;19.35;;
77544;SDS011;66672;50.328;7.610;2023-12-22T09:39:02;23.80;;;21.77;;
77544;SDS011;66672;50.328;7.610;2023-12-22T09:41:27;23.13;;;20.90;;
77544;SDS011;66672;50.328;7.610;2023-12-22T09:43:53;24.10;;;21.95;;
77544;SDS011;66672;50.328;7.610;2023-12-22T09:46:20;23.50;;;20.40;;
77544;SDS011;66672;50.328;7.610;2023-12-22T09:48:46;23.60;;;21.00;;
77544;SDS011;66672;50.328;7.610;2023-12-22T09:51:12;22.50;;;19.73;;
77544;SDS011;66672;50.328;7.610;2023-12-22T09:53:39;21.27;;;19.40;;
77544;SDS011;66672;50.328;7.610;2023-12-22T09:56:05;21.48;;;19.30;;
77544;SDS011;66672;50.328;7.610;2023-12-22T09:58:31;20.65;;;18.60;;
77544;SDS011;66672;50.328;7.610;2023-12-22T10:01:00;21.08;;;19.30;;
77544;SDS011;66672;50.328;7.610;2023-12-22T10:03:27;20.15;;;18.50;;
77544;SDS011;66672;50.328;7.610;2023-12-22T10:05:53;21.08;;;19.15;;
77544;SDS011;66672;50.328;7.610;2023-12-22T10:08:18;20.88;;;19.17;;
77544;SDS011;66672;50.328;7.610;2023-12-22T10:10:45;19.80;;;18.20;;
77544;SDS011;66672;50.328;7.610;2023-12-22T10:13:12;20.58;;;18.75;;
77544;SDS011;66672;50.328;7.610;2023-12-22T10:15:38;20.42;;;18.55;;
77544;SDS011;66672;50.328;7.610;2023-12-22T10:18:05;23.52;;;19.10;;
77544;SDS011;66672;50.328;7.610;2023-12-22T10:20:31;20.75;;;18.80;;
77544;SDS011;66672;50.328;7.610;2023-12-22T10:22:56;20.08;;;18.08;;
77544;SDS011;66672;50.328;7.610;2023-12-22T10:25:23;19.83;;;18.10;;
77544;SDS011;66672;50.328;7.610;2023-12-22T10:27:52;20.83;;;18.83;;
77544;SDS011;66672;50.328;7.610;2023-12-22T10:30:17;19.73;;;17.92;;
77544;SDS011;66672;50.328;7.610;2023-12-22T10:32:42;22.92;;;19.00;;
77544;SDS011;66672;50.328;7.610;2023-12-22T10:35:08;19.92;;;18.25;;
77544;SDS011;66672;50.328;7.610;2023-12-22T10:37:33;20.27;;;18.60;;
77544;SDS011;66672;50.328;7.610;2023-12-22T10:39:58;19.83;;;18.13;;
77544;SDS011;66672;50.328;7.610;2023-12-22T10:42:24;20.00;;;18.48;;
77544;SDS011;66672;50.328;7.610;2023-12-22T10:44:49;20.55;;;18.85;;
77544;SDS011;66672;50.328;7.610;2023-12-22T10:47:14;20.27;;;18.70;;
77544;SDS011;66672;50.328;7.610;2023-12-22T10:49:40;20.20;;;18.60;;
77544;SDS011;66672;50.328;7.610;2023-12-22T10:52:05;19.60;;;18.15;;
77544;SDS011;66672;50.328;7.610;2023-12-22T10:54:30;19.65;;;18.00;;
77544;SDS011;66672;50.328;7.610;2023-12-22T10:56:59;19.75;;;18.20;;
77544;SDS011;66672;50.328;7.610;2023-12-22T10:59:25;20.20;;;18.50;;
77544;SDS011;66672;50.328;7.610;2023-12-22T11:01:52;20.05;;;18.55;;
77544;SDS011;66672;50.328;7.610;2023-12-22T11:04:20;19.88;;;18.17;;
77544;SDS011;66672;50.328;7.610;2023-12-22T11:06:45;19.40;;;17.90;;
77544;SDS011;66672;50.328;7.610;2023-12-22T11:09:12;20.50;;;18.63;;
77544;SDS011;66672;50.328;7.610;2023-12-22T11:11:40;19.35;;;17.75;;
77544;SDS011;66672;50.328;7.610;2023-12-22T11:14:06;20.38;;;18.65;;
77544;SDS011;66672;50.328;7.610;2023-12-22T11:16:32;19.50;;;18.00;;
77544;SDS011;66672;50.328;7.610;2023-12-22T11:19:01;20.35;;;18.60;;
77544;SDS011;66672;50.328;7.610;2023-12-22T11:21:27;19.10;;;17.45;;
77544;SDS011;66672;50.328;7.610;2023-12-22T11:23:53;19.52;;;17.65;;
77544;SDS011;66672;50.328;7.610;2023-12-22T11:26:19;18.67;;;17.27;;
77544;SDS011;66672;50.328;7.610;2023-12-22T11:28:45;18.38;;;17.08;;
77544;SDS011;66672;50.328;7.610;2023-12-22T11:31:10;18.55;;;17.25;;
77544;SDS011;66672;50.328;7.610;2023-12-22T11:33:36;20.80;;;18.98;;
77544;SDS011;66672;50.328;7.610;2023-12-22T11:36:05;19.40;;;17.88;;
77544;SDS011;66672;50.328;7.610;2023-12-22T11:38:30;18.63;;;17.13;;
77544;SDS011;66672;50.328;7.610;2023-12-22T11:40:56;19.38;;;17.98;;
77544;SDS011;66672;50.328;7.610;2023-12-22T11:43:22;19.33;;;17.92;;
77544;SDS011;66672;50.328;7.610;2023-12-22T11:45:49;18.25;;;17.02;;
77544;SDS011;66672;50.328;7.610;2023-12-22T11:48:14;18.52;;;17.05;;
77544;SDS011;66672;50.328;7.610;2023-12-22T11:50:39;18.30;;;17.10;;
77544;SDS011;66672;50.328;7.610;2023-12-22T11:53:24;18.95;;;17.60;;
77544;SDS011;66672;50.328;7.610;2023-12-22T11:56:02;18.20;;;16.95;;
77544;SDS011;66672;50.328;7.610;2023-12-22T11:58:44;18.55;;;17.35;;
77544;SDS011;66672;50.328;7.610;2023-12-22T12:01:27;18.27;;;16.98;;
77544;SDS011;66672;50.328;7.610;2023-12-22T12:03:57;18.52;;;17.02;;
77544;SDS011;66672;50.328;7.610;2023-12-22T12:08:53;17.98;;;16.77;;
77544;SDS011;66672;50.328;7.610;2023-12-22T12:11:18;18.25;;;16.92;;
77544;SDS011;66672;50.328;7.610;2023-12-22T12:13:44;18.20;;;17.00;;
77544;SDS011;66672;50.328;7.610;2023-12-22T12:16:10;18.83;;;17.45;;
77544;SDS011;66672;50.328;7.610;2023-12-22T12:18:35;18.98;;;17.58;;
77544;SDS011;66672;50.328;7.610;2023-12-22T12:21:01;18.30;;;17.10;;
77544;SDS011;66672;50.328;7.610;2023-12-22T12:23:26;18.20;;;16.88;;
77544;SDS011;66672;50.328;7.610;2023-12-22T12:25:52;18.38;;;17.08;;
77544;SDS011;66672;50.328;7.610;2023-12-22T12:28:18;18.63;;;17.33;;
77544;SDS011;66672;50.328;7.610;2023-12-22T12:30:49;18.25;;;17.05;;
77544;SDS011;66672;50.328;7.610;2023-12-22T12:33:21;18.20;;;16.90;;
77544;SDS011;66672;50.328;7.610;2023-12-22T12:35:46;18.88;;;17.58;;
77544;SDS011;66672;50.328;7.610;2023-12-22T12:38:11;18.40;;;17.00;;
77544;SDS011;66672;50.328;7.610;2023-12-22T12:40:37;18.20;;;16.95;;
77544;SDS011;66672;50.328;7.610;2023-12-22T12:43:04;18.15;;;16.95;;
77544;SDS011;66672;50.328;7.610;2023-12-22T12:45:30;18.02;;;16.75;;
77544;SDS011;66672;50.328;7.610;2023-12-22T12:47:59;18.35;;;17.05;;
77544;SDS011;66672;50.328;7.610;2023-12-22T12:50:24;17.95;;;16.75;;
77544;SDS011;66672;50.328;7.610;2023-12-22T12:52:51;17.90;;;16.80;;
77544;SDS011;66672;50.328;7.610;2023-12-22T12:55:17;18.17;;;17.00;;
77544;SDS011;66672;50.328;7.610;2023-12-22T12:57:43;18.38;;;17.17;;
77544;SDS011;66672;50.328;7.610;2023-12-22T13:00:08;18.42;;;17.13;;
77544;SDS011;66672;50.328;7.610;2023-12-22T13:02:34;18.10;;;16.90;;
77544;SDS011;66672;50.328;7.610;2023-12-22T13:05:00;17.95;;;16.85;;
77544;SDS011;66672;50.328;7.610;2023-12-22T13:07:29;18.00;;;16.80;;
77544;SDS011;66672;50.328;7.610;2023-12-22T13:09:54;17.60;;;16.48;;
77544;SDS011;66672;50.328;7.610;2023-12-22T13:12:21;18.85;;;17.65;;
77544;SDS011;66672;50.328;7.610;2023-12-22T13:14:47;18.15;;;17.05;;
77544;SDS011;66672;50.328;7.610;2023-12-22T13:17:12;18.27;;;17.08;;
77544;SDS011;66672;50.328;7.610;2023-12-22T13:19:37;17.83;;;16.73;;
77544;SDS011;66672;50.328;7.610;2023-12-22T13:22:03;18.25;;;16.95;;
77544;SDS011;66672;50.328;7.610;2023-12-22T13:24:28;18.10;;;16.90;;
77544;SDS011;66672;50.328;7.610;2023-12-22T13:27:00;17.85;;;16.65;;
77544;SDS011;66672;50.328;7.610;2023-12-22T13:29:26;18.60;;;17.23;;
77544;SDS011;66672;50.328;7.610;2023-12-22T13:31:52;18.88;;;17.58;;
77544;SDS011;66672;50.328;7.610;2023-12-22T13:34:18;18.20;;;16.90;;
77544;SDS011;66672;50.328;7.610;2023-12-22T13:36:43;19.08;;;17.67;;
77544;SDS011;66672;50.328;7.610;2023-12-22T13:39:08;21.50;;;19.70;;
77544;SDS011;66672;50.328;7.610;2023-12-22T13:41:34;18.70;;;17.40;;
77544;SDS011;66672;50.328;7.610;2023-12-22T13:44:03;18.50;;;17.30;;
77544;SDS011;66672;50.328;7.610;2023-12-22T13:46:29;18.40;;;17.20;;
77544;SDS011;66672;50.328;7.610;2023-12-22T13:48:54;18.40;;;17.10;;
77544;SDS011;66672;50.328;7.610;2023-12-22T13:51:20;18.67;;;17.25;;
77544;SDS011;66672;50.328;7.610;2023-12-22T13:53:48;18.65;;;17.30;;
77544;SDS011;66672;50.328;7.610;2023-12-22T13:56:14;18.13;;;17.02;;
77544;SDS011;66672;50.328;7.610;2023-12-22T13:58:45;18.00;;;16.70;;
77544;SDS011;66672;50.328;7.610;2023-12-22T14:01:14;18.70;;;17.38;;
77544;SDS011;66672;50.328;7.610;2023-12-22T14:03:40;17.85;;;16.65;;
77544;SDS011;66672;50.328;7.610;2023-12-22T14:06:06;18.00;;;16.80;;
77544;SDS011;66672;50.328;7.610;2023-12-22T14:08:34;17.92;;;16.83;;
77544;SDS011;66672;50.328;7.610;2023-12-22T14:10:59;17.85;;;16.65;;
77544;SDS011;66672;50.328;7.610;2023-12-22T14:13:24;18.50;;;17.30;;
77544;SDS011;66672;50.328;7.610;2023-12-22T14:15:49;18.40;;;17.30;;
77544;SDS011;66672;50.328;7.610;2023-12-22T14:18:14;19.35;;;17.85;;